Time;durP1;ratioP1;P1;durP2;ratioP2;P2;SDS_P1;SDS_P2;PMS_P1;PMS_P2;Temp;Humidity;BMP_temperature;BMP_pressure;BME280_temperature;BME280_humidity;BME280_pressure;Samples;Min_cycle;Max_cycle;Signal;HPM_P1;HPM_P2
2022/02/21 00:02:18;;;;;;;1.73;1.00;;;;;;;7.32;100.00;98147.41;5034102;28;20667;-85
2022/02/21 00:05:05;;;;;;;1.77;1.10;;;;;;;7.29;100.00;98121.28;5051782;28;20041;-85
2022/02/21 00:07:43;;;;;;;1.17;0.83;;;;;;;7.33;100.00;98122.00;5043754;28;20127;-84
2022/02/21 00:10:11;;;;;;;2.50;1.63;;;;;;;7.33;100.00;98133.34;5038674;28;20060;-85
2022/02/21 00:12:43;;;;;;;1.57;1.20;;;;;;;7.33;100.00;98114.13;5034109;28;20118;-85
2022/02/21 00:15:17;;;;;;;1.40;1.07;;;;;;;7.33;100.00;98104.47;5034835;28;20193;-84
2022/02/21 00:17:45;;;;;;;1.50;1.20;;;;;;;7.36;100.00;98092.97;5056984;28;20052;-86
2022/02/21 00:20:14;;;;;;;1.03;0.97;;;;;;;7.33;100.00;98091.34;5040339;28;20041;-85
2022/02/21 00:22:41;;;;;;;1.70;1.00;;;;;;;7.37;100.00;98085.94;5039488;28;20036;-86
2022/02/21 00:25:12;;;;;;;1.30;0.90;;;;;;;7.35;100.00;98067.63;5039643;28;20410;-87
2022/02/21 00:27:39;;;;;;;1.73;1.00;;;;;;;7.39;100.00;98060.44;5056747;28;20467;-84
2022/02/21 00:30:13;;;;;;;1.70;1.20;;;;;;;7.40;100.00;98059.50;5040442;28;20068;-84
2022/02/21 00:32:43;;;;;;;1.40;0.90;;;;;;;7.39;100.00;98050.78;5036734;28;20086;-84
2022/02/21 00:35:13;;;;;;;1.40;1.20;;;;;;;7.43;100.00;98047.09;5055272;28;20052;-84
2022/02/21 00:37:40;;;;;;;2.23;1.20;;;;;;;7.44;100.00;98024.28;5039594;28;20044;-84
2022/02/21 00:40:14;;;;;;;1.87;1.10;;;;;;;7.47;100.00;98040.72;5047802;28;20051;-84
2022/02/21 00:42:43;;;;;;;1.63;1.10;;;;;;;7.45;100.00;98012.84;5036529;28;20641;-85
2022/02/21 00:45:12;;;;;;;1.73;1.10;;;;;;;7.49;100.00;98017.88;5037237;28;20510;-84
2022/02/21 00:47:40;;;;;;;1.70;1.10;;;;;;;7.50;100.00;98010.84;5037959;28;20040;-85
2022/02/21 00:50:33;;;;;;;3.75;1.25;;;;;;;7.49;100.00;98011.78;5025785;28;20056;-85
2022/02/21 00:53:03;;;;;;;3.37;1.20;;;;;;;7.50;100.00;97977.56;5038973;28;20622;-85
2022/02/21 00:56:02;;;;;;;2.17;1.03;;;;;;;7.56;100.00;97974.59;5041337;28;20040;-85
2022/02/21 00:58:52;;;;;;;2.10;1.17;;;;;;;7.58;100.00;97980.66;5040257;28;20121;-85
2022/02/21 01:01:19;;;;;;;2.37;1.37;;;;;;;7.58;100.00;97978.00;5021703;28;20663;-84
2022/02/21 01:03:51;;;;;;;1.83;1.10;;;;;;;7.61;100.00;97948.09;5040620;28;20044;-85
2022/02/21 01:09:34;;;;;;;2.27;1.13;;;;;;;7.64;100.00;97942.66;5056537;28;20052;-84
2022/02/21 01:12:18;;;;;;;3.03;1.63;;;;;;;7.66;100.00;97932.94;5043163;28;20418;-84
2022/02/21 01:14:54;;;;;;;3.13;1.30;;;;;;;7.70;100.00;97904.72;5048137;28;20044;-85
2022/02/21 01:17:28;;;;;;;1.77;1.03;;;;;;;7.67;100.00;97913.63;5039274;28;20047;-84
2022/02/21 01:20:06;;;;;;;3.13;1.10;;;;;;;7.74;100.00;97890.50;5036513;28;20053;-83
2022/02/21 01:22:34;;;;;;;2.23;1.17;;;;;;;7.78;100.00;97899.91;5039468;28;20040;-84
2022/02/21 01:25:00;;;;;;;3.10;1.30;;;;;;;7.81;100.00;97890.06;5039737;28;20056;-84
2022/02/21 01:27:29;;;;;;;1.70;0.90;;;;;;;7.83;100.00;97890.84;5055957;28;20495;-84
2022/02/21 01:29:56;;;;;;;1.43;0.90;;;;;;;7.82;100.00;97881.28;5035777;28;20052;-84
2022/02/21 01:32:23;;;;;;;1.13;0.90;;;;;;;7.86;100.00;97860.94;5038020;28;20071;-84
2022/02/21 01:34:53;;;;;;;1.67;0.90;;;;;;;7.86;100.00;97864.41;5039844;28;20037;-86
2022/02/21 01:37:22;;;;;;;1.87;1.30;;;;;;;7.88;100.00;97859.06;5040187;28;20051;-84
2022/02/21 01:39:50;;;;;;;2.93;1.07;;;;;;;7.92;100.00;97852.72;5039038;28;20040;-86
2022/02/21 01:42:17;;;;;;;1.00;0.90;;;;;;;7.98;100.00;97838.38;5034736;28;20048;-86
2022/02/21 01:44:47;;;;;;;1.37;1.07;;;;;;;7.98;100.00;97827.84;5047052;28;20043;-85
2022/02/21 01:47:16;;;;;;;1.03;0.80;;;;;;;8.00;100.00;97816.34;5038776;28;20493;-85
2022/02/21 01:49:45;;;;;;;2.50;1.00;;;;;;;8.01;100.00;97814.56;5040318;28;20074;-86
2022/02/21 01:52:12;;;;;;;2.07;0.80;;;;;;;8.03;100.00;97823.19;5042000;28;20051;-86
2022/02/21 01:54:39;;;;;;;1.23;0.82;;;;;;;8.09;100.00;97797.41;5038635;28;20067;-87
2022/02/21 01:57:09;;;;;;;1.77;1.40;;;;;;;8.12;100.00;97778.81;5058115;28;20052;-86
2022/02/21 01:59:39;;;;;;;3.23;1.53;;;;;;;8.20;100.00;97788.91;5039142;28;20045;-85
2022/02/21 02:02:07;;;;;;;1.47;0.80;;;;;;;8.30;100.00;97774.31;5043886;28;20044;-88
2022/02/21 02:04:34;;;;;;;2.42;1.40;;;;;;;8.29;100.00;97780.50;5042681;28;20041;-86
2022/02/21 02:07:04;;;;;;;1.40;0.90;;;;;;;8.32;100.00;97764.53;5043943;28;20041;-86
2022/02/21 02:09:31;;;;;;;2.67;1.13;;;;;;;8.34;100.00;97757.41;5037673;28;20044;-85
2022/02/21 02:12:00;;;;;;;1.00;0.80;;;;;;;8.39;100.00;97749.28;5042376;28;20037;-86
2022/02/21 02:14:35;;;;;;;1.13;0.90;;;;;;;8.39;100.00;97760.66;5042757;28;20041;-85
2022/02/21 02:17:20;;;;;;;2.13;0.83;;;;;;;8.42;100.00;97738.59;5027216;28;20329;-87
2022/02/21 02:19:47;;;;;;;1.37;0.80;;;;;;;8.42;100.00;97735.97;5055937;28;20527;-86
2022/02/21 02:22:18;;;;;;;3.40;1.20;;;;;;;8.45;100.00;97744.50;5080354;28;20052;-84
2022/02/21 02:24:47;;;;;;;2.63;1.65;;;;;;;8.40;100.00;97738.66;5045907;28;20079;-84
2022/02/21 02:27:15;;;;;;;2.47;1.20;;;;;;;8.41;100.00;97753.53;5044798;28;20061;-86
2022/02/21 02:29:43;;;;;;;1.30;0.87;;;;;;;8.41;100.00;97752.69;5044690;28;20044;-86
2022/02/21 02:32:11;;;;;;;0.87;0.87;;;;;;;8.46;100.00;97740.94;5061206;28;20090;-86
2022/02/21 02:34:39;;;;;;;1.77;0.95;;;;;;;8.40;100.00;97728.13;5042811;28;20044;-86
2022/02/21 02:37:06;;;;;;;2.03;1.00;;;;;;;8.42;100.00;97725.44;5056130;28;20671;-87
2022/02/21 02:39:33;;;;;;;2.57;0.77;;;;;;;8.33;100.00;97718.91;5036304;28;20419;-85
2022/02/21 02:42:00;;;;;;;0.80;0.70;;;;;;;8.28;100.00;97735.88;5042690;28;20140;-85
2022/02/21 02:44:27;;;;;;;1.45;0.90;;;;;;;8.26;100.00;97741.22;5042581;28;20399;-86
2022/02/21 02:46:55;;;;;;;1.08;0.80;;;;;;;8.26;100.00;97737.75;5059436;28;20068;-86
2022/02/21 02:49:22;;;;;;;1.38;0.80;;;;;;;8.23;100.00;97757.16;5038395;28;20141;-85
2022/02/21 02:51:49;;;;;;;1.77;0.80;;;;;;;8.29;100.00;97737.56;5039667;28;20049;-85
2022/02/21 02:54:16;;;;;;;3.20;1.05;;;;;;;8.35;100.00;97740.72;5054751;28;20544;-87
2022/02/21 02:56:45;;;;;;;2.53;1.00;;;;;;;8.35;100.00;97743.38;5074170;22;20123;-83
2022/02/21 02:59:12;;;;;;;2.08;1.10;;;;;;;8.39;100.00;97749.28;5070931;28;20128;-79
2022/02/21 03:01:41;;;;;;;0.82;0.80;;;;;;;8.42;100.00;97751.75;5059497;28;20036;-81
2022/02/21 03:04:09;;;;;;;0.80;0.60;;;;;;;8.40;100.00;97757.06;5039189;28;20660;-83
2022/02/21 03:06:37;;;;;;;1.48;0.70;;;;;;;8.40;100.00;97740.44;5055557;28;20052;-80
2022/02/21 03:09:03;;;;;;;0.95;0.70;;;;;;;8.41;100.00;97765.84;5030901;28;20118;-81
2022/02/21 03:11:30;;;;;;;1.55;0.70;;;;;;;8.33;100.00;97771.50;5042220;28;20139;-82
2022/02/21 03:13:59;;;;;;;0.70;0.60;;;;;;;8.24;100.00;97787.81;5057428;28;20427;-80
2022/02/21 03:16:27;;;;;;;0.90;0.43;;;;;;;8.13;100.00;97803.34;5035161;28;20029;-83
2022/02/21 03:18:54;;;;;;;0.77;0.43;;;;;;;7.97;100.00;97805.13;5048711;28;20049;-80
2022/02/21 03:21:21;;;;;;;1.25;0.55;;;;;;;7.85;100.00;97804.03;5026625;28;20052;-79
2022/02/21 03:23:48;;;;;;;0.70;0.50;;;;;;;7.73;100.00;97823.94;5022169;28;20049;-82
2022/02/21 03:26:15;;;;;;;1.70;0.50;;;;;;;7.65;100.00;97817.41;5025945;28;20044;-80
2022/02/21 03:28:41;;;;;;;0.80;0.43;;;;;;;7.57;100.00;97839.69;5061135;28;20044;-80
2022/02/21 03:31:08;;;;;;;2.53;0.60;;;;;;;7.38;100.00;97864.38;5052565;28;20044;-83
2022/02/21 03:33:35;;;;;;;0.30;0.30;;;;;;;7.28;100.00;97896.38;5038774;28;20036;-80
2022/02/21 03:36:02;;;;;;;0.30;0.30;;;;;;;7.14;100.00;97888.34;5035872;28;20075;-81
2022/02/21 03:38:29;;;;;;;0.53;0.50;;;;;;;7.03;100.00;97890.66;5019992;28;20045;-80
2022/02/21 03:40:55;;;;;;;0.47;0.30;;;;;;;6.95;100.00;97908.56;5036281;28;20549;-79
2022/02/21 03:43:22;;;;;;;0.90;0.40;;;;;;;6.90;100.00;97910.59;5037105;28;20048;-78
2022/02/21 03:45:48;;;;;;;1.10;0.30;;;;;;;6.87;100.00;97935.19;5044885;28;20044;-79
2022/02/21 03:48:16;;;;;;;0.90;0.30;;;;;;;6.69;100.00;97942.19;5045663;28;20498;-78
2022/02/21 03:50:43;;;;;;;2.13;1.40;;;;;;;6.55;100.00;97935.88;5053097;28;20415;-82
2022/02/21 05:46:27;;;;;;;6.70;1.40;;;;;;;5.05;100.00;98115.28;6259619;22;20496;-84
2022/02/21 05:49:05;;;;;;;1.80;0.90;;;;;;;5.00;100.00;98120.69;5921189;23;6304713;-82
2022/02/21 05:51:49;;;;;;;2.70;1.00;;;;;;;5.00;100.00;98139.00;6162985;23;20025;-84
2022/02/21 05:54:15;;;;;;;4.60;1.30;;;;;;;5.03;100.00;98143.25;6140510;23;20021;-84
2022/02/21 05:56:49;;;;;;;4.47;1.50;;;;;;;5.00;100.00;98143.38;6161975;23;20325;-84
2022/02/21 05:59:17;;;;;;;3.73;1.23;;;;;;;5.02;100.00;98147.63;6163130;23;20409;-83
2022/02/21 06:01:44;;;;;;;3.80;1.03;;;;;;;5.03;99.14;98141.50;6140608;23;20031;-85
2022/02/21 06:04:11;;;;;;;4.53;1.53;;;;;;;4.99;98.10;98149.53;6164152;23;20108;-82
2022/02/21 06:06:37;;;;;;;3.00;1.00;;;;;;;4.99;98.43;98150.38;6140795;23;20025;-82
2022/02/21 06:09:04;;;;;;;4.00;1.67;;;;;;;4.92;97.02;98146.28;6165756;23;20027;-83
2022/02/21 06:11:32;;;;;;;5.00;1.53;;;;;;;4.97;97.55;98165.31;6164728;23;20028;-83
2022/02/21 06:13:58;;;;;;;3.13;1.00;;;;;;;4.90;95.87;98155.13;6189665;23;20082;-84
2022/02/21 06:16:25;;;;;;;3.50;1.30;;;;;;;4.88;94.65;98173.50;6163587;23;20020;-82
2022/02/21 06:18:53;;;;;;;5.53;1.40;;;;;;;4.80;92.20;98183.38;6165697;23;20025;-83
2022/02/21 06:21:20;;;;;;;4.53;1.13;;;;;;;4.80;94.10;98183.38;6140642;23;20108;-84
2022/02/21 06:23:48;;;;;;;3.13;1.10;;;;;;;4.82;93.86;98192.03;6165343;23;20474;-84
2022/02/21 06:26:14;;;;;;;3.93;1.23;;;;;;;4.77;93.21;98210.50;6140213;23;20345;-84
2022/02/21 06:28:41;;;;;;;5.30;1.23;;;;;;;4.74;90.89;98209.75;6164333;23;20024;-84
2022/02/21 06:31:09;;;;;;;6.83;1.10;;;;;;;4.66;90.40;98223.09;6164589;23;20091;-84
2022/02/21 06:33:36;;;;;;;2.77;1.33;;;;;;;4.60;92.43;98223.31;6164108;23;20449;-84
2022/02/21 06:36:05;;;;;;;3.83;1.47;;;;;;;4.58;98.01;98234.75;6164113;23;20028;-81
2022/02/21 06:38:32;;;;;;;6.53;1.93;;;;;;;4.18;99.16;98247.41;6164722;23;20068;-82
2022/02/21 06:40:59;;;;;;;3.43;1.20;;;;;;;4.27;100.00;98266.31;6152403;23;20021;-82
2022/02/21 06:43:26;;;;;;;4.03;1.43;;;;;;;4.17;100.00;98266.59;6116133;23;20021;-80
2022/02/21 06:45:53;;;;;;;1.90;1.10;;;;;;;4.15;100.00;98278.03;6065415;23;20022;-78
2022/02/21 06:48:19;;;;;;;4.60;1.30;;;;;;;4.15;100.00;98283.25;6079623;23;20025;-81
2022/02/21 06:50:46;;;;;;;3.30;1.70;;;;;;;4.15;100.00;98283.25;6056360;23;20021;-80
2022/02/21 06:53:13;;;;;;;4.97;1.43;;;;;;;4.16;100.00;98277.97;6079724;23;20021;-81
2022/02/21 06:55:39;;;;;;;6.57;1.93;;;;;;;4.14;97.90;98290.25;6056634;23;20405;-79
2022/02/21 06:58:10;;;;;;;4.83;1.50;;;;;;;4.17;98.72;98302.34;6081396;23;20022;-80
2022/02/21 07:00:37;;;;;;;6.47;1.80;;;;;;;4.20;95.81;98305.72;6082424;23;20018;-81
2022/02/21 07:03:04;;;;;;;7.97;2.73;;;;;;;4.18;95.59;98301.44;6080878;23;20030;-82
2022/02/21 07:05:31;;;;;;;12.03;2.07;;;;;;;4.21;94.15;98315.28;6081247;23;20042;-80
2022/02/21 07:07:58;;;;;;;6.47;2.10;;;;;;;4.22;94.12;98309.13;6106349;23;20022;-79
2022/02/21 07:10:24;;;;;;;5.37;1.93;;;;;;;4.23;93.53;98312.59;6103505;23;20050;-79
2022/02/21 07:12:51;;;;;;;5.00;1.60;;;;;;;4.18;92.78;98317.97;6079811;23;20025;-80
2022/02/21 07:15:18;;;;;;;8.57;2.43;;;;;;;4.18;92.56;98324.94;6054478;23;20369;-79
2022/02/21 07:17:45;;;;;;;7.07;2.37;;;;;;;4.27;92.40;98327.25;6078286;23;20085;-80
2022/02/21 07:20:12;;;;;;;5.60;2.10;;;;;;;4.27;92.33;98337.72;6078953;23;20022;-79
2022/02/21 07:22:40;;;;;;;5.83;1.80;;;;;;;4.22;90.69;98356.19;6078632;23;20022;-80
2022/02/21 07:25:09;;;;;;;5.87;2.00;;;;;;;4.24;91.43;98359.59;6078171;23;20080;-79
2022/02/21 07:27:46;;;;;;;7.63;1.90;;;;;;;4.27;93.54;98349.94;6102363;23;20022;-80
2022/02/21 07:30:14;;;;;;;6.67;2.03;;;;;;;4.31;93.51;98330.66;6104748;23;20028;-80
2022/02/21 07:32:41;;;;;;;8.83;2.73;;;;;;;4.33;94.03;98348.00;6087198;23;20022;-83
2022/02/21 07:35:08;;;;;;;8.07;2.87;;;;;;;4.34;95.25;98347.09;6085691;23;20034;-81
2022/02/21 07:37:35;;;;;;;5.17;1.80;;;;;;;4.42;94.62;98350.31;6085814;23;20080;-81
2022/02/21 07:40:03;;;;;;;11.20;2.67;;;;;;;4.42;94.31;98360.75;6061694;23;20216;-80
2022/02/21 07:42:30;;;;;;;10.87;4.33;;;;;;;4.51;95.16;98365.69;6087327;23;20260;-82
2022/02/21 07:44:57;;;;;;;10.23;2.60;;;;;;;4.44;96.02;98377.25;6059047;23;20021;-82
2022/02/21 07:47:24;;;;;;;10.47;2.53;;;;;;;4.35;97.58;98374.94;6081173;23;20036;-81
2022/02/21 07:49:51;;;;;;;5.50;2.40;;;;;;;4.26;97.55;98388.28;6080803;23;20495;-82
2022/02/21 07:52:17;;;;;;;5.10;2.57;;;;;;;4.27;96.76;98384.78;6057836;23;20026;-81
2022/02/21 07:54:45;;;;;;;10.17;2.70;;;;;;;4.24;97.88;98390.97;6103880;23;20349;-82
2022/02/21 07:57:13;;;;;;;6.93;2.20;;;;;;;4.24;97.42;98387.50;6058448;23;20021;-79
2022/02/21 07:59:40;;;;;;;5.70;3.10;;;;;;;4.31;98.19;98394.25;6082701;23;20021;-81
2022/02/21 08:02:07;;;;;;;6.30;2.20;;;;;;;4.34;97.17;98385.44;6103051;23;20040;-78
2022/02/21 08:04:33;;;;;;;3.37;1.67;;;;;;;4.39;95.14;98407.06;6078825;23;20071;-78
2022/02/21 08:07:00;;;;;;;11.17;2.67;;;;;;;4.38;93.19;98402.75;6079453;23;20026;-82
2022/02/21 08:09:27;;;;;;;8.90;2.50;;;;;;;4.32;92.11;98405.53;6079766;23;20026;-82
2022/02/21 08:11:54;;;;;;;10.60;2.77;;;;;;;4.35;93.05;98402.81;6080822;23;20389;-79
2022/02/21 08:14:22;;;;;;;6.80;1.83;;;;;;;4.22;92.85;98416.28;6056358;23;20022;-79
2022/02/21 08:16:48;;;;;;;6.43;1.77;;;;;;;4.37;90.90;98407.13;6103057;23;20018;-82
2022/02/21 08:19:15;;;;;;;10.53;3.50;;;;;;;4.51;91.09;98411.91;6079162;23;20026;-82
2022/02/21 08:21:42;;;;;;;5.93;2.30;;;;;;;4.68;91.31;98427.03;6103530;23;20425;-79
2022/02/21 08:24:09;;;;;;;8.07;2.80;;;;;;;4.60;87.08;98427.28;6103153;23;20069;-81
2022/02/21 08:26:36;;;;;;;7.13;2.17;;;;;;;4.61;89.17;98429.00;6079572;23;20072;-79
2022/02/21 08:29:03;;;;;;;5.80;2.23;;;;;;;4.60;88.92;98426.44;6103482;23;20398;-80
2022/02/21 08:31:29;;;;;;;8.57;2.10;;;;;;;4.50;86.94;98421.50;6079649;23;20030;-80
2022/02/21 08:33:56;;;;;;;8.00;2.30;;;;;;;4.42;86.23;98427.88;6103199;23;20365;-77
2022/02/21 08:36:25;;;;;;;6.03;2.27;;;;;;;4.45;87.30;98433.00;6056290;23;20037;-79
2022/02/21 08:38:52;;;;;;;6.30;2.43;;;;;;;4.42;84.67;98410.44;6079630;23;20022;-81
2022/02/21 08:41:19;;;;;;;6.30;2.93;;;;;;;4.50;86.60;98442.41;6076283;23;20475;-78
2022/02/21 08:43:45;;;;;;;5.40;2.20;;;;;;;4.56;85.81;98451.00;6076797;23;20091;-80
2022/02/21 08:46:13;;;;;;;6.67;2.10;;;;;;;4.63;86.82;98434.19;6053799;23;20033;-79
2022/02/21 08:49:02;;;;;;;4.67;2.57;;;;;;;4.66;87.05;98448.03;6086202;23;20077;-82
2022/02/21 08:51:28;;;;;;;4.57;1.83;;;;;;;4.73;89.05;98467.00;6080588;23;20025;-80
2022/02/21 08:53:55;;;;;;;4.97;1.80;;;;;;;4.63;89.84;98452.50;6105098;23;20096;-81
2022/02/21 08:56:24;;;;;;;7.23;1.90;;;;;;;4.67;92.25;98460.19;6103261;23;20017;-81
2022/02/21 08:58:51;;;;;;;4.20;1.60;;;;;;;4.65;89.91;98451.53;6079110;23;20032;-80
2022/02/21 09:01:18;;;;;;;3.93;1.90;;;;;;;4.70;92.68;98470.53;6101853;23;20073;-81
2022/02/21 09:03:45;;;;;;;9.40;3.10;;;;;;;4.72;92.88;98462.69;6054980;23;20461;-79
2022/02/21 09:06:12;;;;;;;6.00;2.63;;;;;;;4.56;91.84;98470.16;6054638;23;20022;-81
2022/02/21 09:08:38;;;;;;;7.67;2.80;;;;;;;4.51;91.60;98459.81;6078045;23;20026;-81
2022/02/21 09:11:05;;;;;;;4.07;2.10;;;;;;;4.44;91.89;98467.88;6076784;23;20022;-80
2022/02/21 09:13:31;;;;;;;7.97;2.43;;;;;;;4.33;91.34;98476.06;6076423;23;20032;-80
2022/02/21 09:15:58;;;;;;;7.03;2.73;;;;;;;4.38;93.64;98484.63;6076120;23;20041;-80
2022/02/21 09:18:25;;;;;;;15.53;5.43;;;;;;;4.47;92.58;98481.75;6052707;23;20021;-81
2022/02/21 09:20:53;;;;;;;4.20;2.17;;;;;;;4.55;90.17;98483.28;6052557;23;20034;-79
2022/02/21 09:23:20;;;;;;;6.50;1.97;;;;;;;4.55;89.82;98489.34;6076008;23;20366;-80
2022/02/21 09:25:47;;;;;;;6.40;2.23;;;;;;;4.53;88.95;98481.53;6074019;23;20353;-80
2022/02/21 09:28:14;;;;;;;8.47;1.77;;;;;;;4.50;88.69;98497.31;6099460;23;20453;-80
2022/02/21 09:30:40;;;;;;;7.10;2.27;;;;;;;4.50;88.61;98493.84;6077236;23;20026;-79
2022/02/21 09:33:07;;;;;;;8.53;1.73;;;;;;;4.51;89.07;98485.09;6079714;23;20121;-82
2022/02/21 09:35:34;;;;;;;15.33;2.60;;;;;;;4.54;88.89;98500.72;6077228;23;20018;-83
2022/02/21 09:38:00;;;;;;;4.97;2.03;;;;;;;4.49;86.76;98495.63;6077465;23;20022;-79
2022/02/21 09:40:29;;;;;;;4.47;1.87;;;;;;;4.65;88.38;98495.16;6100313;23;20022;-79
2022/02/21 09:42:59;;;;;;;12.77;2.10;;;;;;;4.88;87.57;98515.38;6054207;23;20026;-80
2022/02/21 09:45:28;;;;;;;6.13;2.33;;;;;;;5.08;82.54;98500.72;6053077;23;20073;-82
2022/02/21 09:47:57;;;;;;;6.80;2.40;;;;;;;5.18;80.61;98506.50;6100874;23;20030;-80
2022/02/21 09:50:44;;;;;;;5.93;1.70;;;;;;;5.30;82.31;98502.63;6081700;23;20026;-81
2022/02/21 09:53:11;;;;;;;6.17;2.10;;;;;;;5.33;79.80;98523.47;6076770;23;20026;-78
2022/02/21 09:55:38;;;;;;;10.30;2.40;;;;;;;5.52;80.52;98503.59;6076333;23;20393;-79
2022/02/21 09:58:05;;;;;;;6.03;2.07;;;;;;;5.56;78.38;98510.47;6076783;23;20364;-80
2022/02/21 10:00:32;;;;;;;6.37;2.27;;;;;;;5.52;78.92;98513.22;6076745;23;20025;-79
2022/02/21 10:02:59;;;;;;;5.40;1.77;;;;;;;5.41;78.75;98503.13;6076916;23;20054;-82
2022/02/21 10:05:28;;;;;;;9.10;2.73;;;;;;;5.23;76.90;98514.22;6077070;23;20032;-78
2022/02/21 10:07:56;;;;;;;7.83;2.57;;;;;;;5.18;77.48;98503.88;6078139;23;20026;-80
2022/02/21 10:10:25;;;;;;;11.03;3.40;;;;;;;5.13;78.13;98523.25;6076524;23;20048;-83
2022/02/21 10:12:52;;;;;;;6.97;2.00;;;;;;;5.11;77.64;98525.06;6076700;23;20453;-80
2022/02/21 10:15:21;;;;;;;4.23;1.90;;;;;;;5.09;76.59;98531.22;6099110;23;20426;-80
2022/02/21 10:17:48;;;;;;;3.87;1.63;;;;;;;5.31;79.22;98531.38;6077555;23;20026;-79
2022/02/21 10:20:17;;;;;;;9.83;2.50;;;;;;;5.33;75.55;98531.31;6075494;23;20028;-82
2022/02/21 10:23:04;;;;;;;9.63;2.27;;;;;;;5.43;76.03;98539.72;6078227;23;20105;-79
2022/02/21 10:25:32;;;;;;;7.07;2.07;;;;;;;5.36;75.82;98544.31;6054731;23;20022;-80
2022/02/21 10:27:59;;;;;;;5.07;2.33;;;;;;;5.48;73.93;98530.81;6078169;23;20030;-80
2022/02/21 10:30:27;;;;;;;7.57;2.73;;;;;;;5.60;75.12;98559.19;6055213;23;20026;-81
2022/02/21 10:33:11;;;;;;;7.80;2.33;;;;;;;5.49;74.54;98537.75;6081106;23;20026;-80
2022/02/21 10:35:39;;;;;;;5.30;2.40;;;;;;;5.48;74.32;98530.81;6077087;23;20017;-81
2022/02/21 10:38:05;;;;;;;7.00;2.30;;;;;;;5.28;74.27;98541.09;6078368;23;20476;-82
2022/02/21 10:40:36;;;;;;;5.70;2.47;;;;;;;5.21;75.02;98537.84;6077716;23;20371;-81
2022/02/21 10:43:14;;;;;;;7.20;2.30;;;;;;;5.14;74.69;98559.88;6078168;23;20022;-79
2022/02/21 10:45:45;;;;;;;5.80;2.17;;;;;;;5.00;72.81;98572.53;6053924;23;20029;-80
2022/02/21 10:48:16;;;;;;;5.67;2.03;;;;;;;4.94;74.50;98552.63;6079157;23;20089;-80
2022/02/21 10:51:02;;;;;;;5.40;1.73;;;;;;;4.94;74.86;98557.00;6056305;23;20026;-83
2022/02/21 10:53:37;;;;;;;7.27;2.20;;;;;;;5.01;75.88;98561.16;6083088;23;20022;-83
2022/02/21 10:56:04;;;;;;;7.30;1.97;;;;;;;4.99;75.58;98561.22;6057533;23;20022;-83
2022/02/21 10:58:31;;;;;;;5.27;1.90;;;;;;;4.97;75.24;98565.63;6057405;23;20081;-81
2022/02/21 11:00:58;;;;;;;7.00;1.73;;;;;;;5.02;75.48;98555.00;6056757;23;20028;-81
2022/02/21 11:03:27;;;;;;;7.73;2.70;;;;;;;5.09;75.51;98580.09;6056515;23;20033;-80
2022/02/21 11:05:56;;;;;;;7.90;2.13;;;;;;;5.14;77.16;98585.19;6079455;23;20018;-81
2022/02/21 11:08:27;;;;;;;6.87;2.30;;;;;;;5.14;74.88;98585.19;6078626;23;20461;-79
2022/02/21 11:11:14;;;;;;;6.93;2.13;;;;;;;5.14;77.34;98586.06;6078897;23;20104;-81
2022/02/21 11:13:41;;;;;;;7.50;3.20;;;;;;;5.18;79.28;98598.13;6078103;23;20089;-83
2022/02/21 11:16:09;;;;;;;7.43;2.30;;;;;;;5.12;81.39;98594.84;6076699;23;20022;-82
2022/02/21 11:18:36;;;;;;;5.53;2.03;;;;;;;4.97;84.18;98599.66;6054858;23;20018;-82
2022/02/21 11:21:03;;;;;;;4.30;2.10;;;;;;;4.90;86.11;98611.22;6102929;23;20029;-80
2022/02/21 11:23:31;;;;;;;3.77;2.17;;;;;;;4.80;88.97;98607.16;6078832;23;20026;-80
2022/02/21 11:26:07;;;;;;;7.93;4.60;;;;;;;4.77;91.32;98617.69;6100799;23;20014;-80
2022/02/21 11:29:00;;;;;;;8.13;2.90;;;;;;;4.83;92.54;98609.69;6054122;23;20022;-81
2022/02/21 11:31:31;;;;;;;5.07;2.47;;;;;;;4.92;93.54;98609.41;6120849;23;20026;-80
2022/02/21 11:34:05;;;;;;;7.30;2.57;;;;;;;5.03;93.20;98609.91;6054472;23;20077;-81
2022/02/21 11:36:36;;;;;;;7.80;4.05;;;;;;;5.02;89.70;98607.34;6100856;23;20049;-84
2022/02/21 11:39:26;;;;;;;7.10;4.50;;;;;;;5.05;90.18;98604.66;6077156;23;20585;-80
2022/02/21 11:42:16;;;;;;;7.40;2.45;;;;;;;5.02;87.48;98602.13;6104891;23;20053;-81
2022/02/21 11:44:52;;;;;;;14.00;3.50;;;;;;;5.07;86.59;98605.47;6052276;23;20032;-81
2022/02/21 11:47:44;;;;;;;12.13;3.47;;;;;;;5.03;86.69;98598.59;6056172;23;20104;-81
2022/02/21 11:50:17;;;;;;;6.43;3.20;;;;;;;5.02;85.17;98592.50;6075154;23;20026;-82
2022/02/21 11:52:50;;;;;;;8.30;2.20;;;;;;;5.06;83.66;98595.91;6099056;23;20022;-83
2022/02/21 11:55:29;;;;;;;3.63;1.60;;;;;;;5.05;80.78;98594.19;6075645;23;20426;-80
2022/02/21 11:57:59;;;;;;;6.53;2.43;;;;;;;5.11;83.20;98590.50;6098133;23;20045;-81
2022/02/21 12:00:40;;;;;;;7.93;2.47;;;;;;;5.18;82.27;98602.50;6052000;23;20480;-82
2022/02/21 12:03:17;;;;;;;8.90;2.60;;;;;;;5.12;81.50;98594.84;6074394;23;20051;-81
2022/02/21 12:06:06;;;;;;;11.17;2.27;;;;;;;5.26;77.99;98587.41;6054864;23;20030;-82
2022/02/21 12:08:53;;;;;;;9.60;3.03;;;;;;;5.33;77.75;98583.69;6105075;23;20045;-83
2022/02/21 12:11:20;;;;;;;11.47;7.60;;;;;;;5.43;75.85;98599.94;6053057;23;20056;-81
2022/02/21 12:13:48;;;;;;;7.07;2.43;;;;;;;5.49;76.56;98590.13;6075979;23;20088;-80
2022/02/21 12:16:16;;;;;;;4.77;1.77;;;;;;;5.56;74.80;98601.28;6097669;23;20025;-80
2022/02/21 12:18:45;;;;;;;6.93;2.00;;;;;;;5.62;73.21;98598.44;6075397;23;20022;-80
2022/02/21 12:21:24;;;;;;;7.03;1.73;;;;;;;5.65;72.18;98595.72;6052289;23;20441;-79
2022/02/21 12:24:00;;;;;;;5.77;1.97;;;;;;;5.65;73.20;98606.22;6077250;23;20045;-80
2022/02/21 12:26:38;;;;;;;3.17;1.37;;;;;;;5.72;74.61;98612.97;6100464;23;20450;-82
2022/02/21 12:29:17;;;;;;;6.77;2.23;;;;;;;5.69;71.46;98609.56;6076322;23;20018;-83
2022/02/21 12:32:01;;;;;;;7.53;2.10;;;;;;;5.63;72.91;98616.75;6080525;23;20029;-80
2022/02/21 12:34:31;;;;;;;5.10;1.75;;;;;;;5.55;72.83;98613.53;6080693;23;20282;-82
2022/02/21 12:37:03;;;;;;;9.20;2.13;;;;;;;5.52;72.11;98618.84;6081080;23;20449;-80
2022/02/21 12:39:38;;;;;;;12.63;2.60;;;;;;;5.53;72.18;98607.44;6057522;23;20030;-82
2022/02/21 12:42:06;;;;;;;6.27;4.37;;;;;;;5.46;70.83;98610.31;6057096;23;20529;-82
2022/02/21 12:44:33;;;;;;;10.20;4.20;;;;;;;5.45;70.62;98611.22;6053895;23;20029;-83
2022/02/21 12:47:04;;;;;;;11.50;5.00;;;;;;;5.45;72.92;98612.09;6105766;23;20014;-82
2022/02/21 12:49:49;;;;;;;10.93;5.30;;;;;;;5.52;71.06;98612.75;6082116;23;20105;-81
2022/02/21 12:52:17;;;;;;;12.20;5.43;;;;;;;5.57;70.17;98605.59;6055416;23;20022;-80
2022/02/21 12:54:54;;;;;;;7.03;2.93;;;;;;;5.63;69.38;98615.84;6084575;23;20078;-84
2022/02/21 12:57:26;;;;;;;10.63;3.67;;;;;;;5.68;71.29;98606.09;6084226;23;20018;-82
2022/02/21 12:59:55;;;;;;;;;;;;;;;5.61;70.85;98618.53;6084747;23;20105;-82
2022/02/21 13:02:23;;;;;;;10.53;3.60;;;;;;;5.59;71.06;98630.84;6082152;23;19988;-82
2022/02/21 13:04:50;;;;;;;6.93;2.70;;;;;;;5.49;71.49;98626.81;6079339;23;20090;-83
2022/02/21 13:07:26;;;;;;;4.73;2.63;;;;;;;5.47;71.85;98633.88;6057375;23;20128;-83
2022/02/21 13:10:04;;;;;;;5.85;2.92;;;;;;;5.33;72.27;98626.44;6104551;23;20018;-83
2022/02/21 13:12:31;;;;;;;5.80;2.50;;;;;;;5.31;71.72;98632.63;6087277;23;20032;-83
2022/02/21 13:14:59;;;;;;;5.73;2.77;;;;;;;5.20;71.76;98629.47;6081740;23;20251;-83
2022/02/21 13:17:28;;;;;;;6.87;3.20;;;;;;;5.19;71.52;98636.47;6080900;23;20054;-83
2022/02/21 13:19:56;;;;;;;9.40;3.23;;;;;;;5.20;71.83;98642.56;6078128;23;20027;-82
2022/02/21 13:22:31;;;;;;;5.97;2.47;;;;;;;5.25;72.26;98636.28;6079788;23;20050;-83
2022/02/21 13:25:03;;;;;;;6.27;3.20;;;;;;;5.29;71.52;98623.94;6099778;23;20026;-83
2022/02/21 13:27:37;;;;;;;7.20;3.00;;;;;;;5.34;71.03;98629.91;6054327;23;20073;-83
2022/02/21 13:30:05;;;;;;;;;;;;;;;5.35;71.02;98629.00;6077342;23;20029;-83
2022/02/21 13:32:35;;;;;;;3.83;2.50;;;;;;;5.28;70.43;98623.09;6076883;23;19923;-84
2022/02/21 13:35:03;;;;;;;8.60;2.47;;;;;;;5.31;71.41;98630.88;6054787;23;20026;-83
2022/02/21 13:37:33;;;;;;;6.23;3.10;;;;;;;5.31;70.49;98628.25;6054161;23;20066;-83
2022/02/21 13:40:02;;;;;;;9.73;2.60;;;;;;;5.31;71.02;98632.63;6056045;23;20033;-83
2022/02/21 13:42:32;;;;;;;6.60;2.83;;;;;;;5.30;70.61;98623.06;6033377;23;20033;-82
2022/02/21 13:45:17;;;;;;;6.43;2.90;;;;;;;5.33;70.21;98628.19;6084434;23;20019;-84
2022/02/21 13:47:56;;;;;;;11.80;3.13;;;;;;;5.33;71.56;98622.97;6056372;23;20025;-82
2022/02/21 13:50:51;;;;;;;8.60;3.97;;;;;;;5.31;69.13;98630.03;6055051;23;20026;-82